createdAt,value
2022-08-30T00:00:05.677Z,0
2022-08-30T00:01:21.971Z,0
2022-08-30T00:02:38.248Z,0
2022-08-30T00:03:54.564Z,0
2022-08-30T00:05:10.836Z,0
2022-08-30T00:06:27.135Z,0
2022-08-30T00:07:43.429Z,0
2022-08-30T00:08:59.722Z,0
2022-08-30T00:10:16.008Z,0
2022-08-30T00:11:32.301Z,0
2022-08-30T00:12:48.597Z,0
2022-08-30T00:14:03.912Z,0
2022-08-30T00:15:20.207Z,0
2022-08-30T00:16:36.499Z,0
2022-08-30T00:17:52.783Z,0
2022-08-30T00:19:09.069Z,0
2022-08-30T00:20:25.381Z,0
2022-08-30T00:21:41.658Z,0
2022-08-30T00:22:57.952Z,0
2022-08-30T00:24:14.253Z,0
2022-08-30T00:25:30.549Z,0
2022-08-30T00:26:46.833Z,0
2022-08-30T00:28:03.125Z,0
2022-08-30T00:29:19.412Z,0
2022-08-30T00:30:34.723Z,0
2022-08-30T00:31:51.019Z,0
2022-08-30T00:33:07.310Z,0
2022-08-30T00:34:23.611Z,0
2022-08-30T00:35:39.899Z,0
2022-08-30T00:36:56.196Z,0
2022-08-30T00:38:12.493Z,0
2022-08-30T00:39:28.772Z,0
2022-08-30T00:40:45.073Z,0
2022-08-30T00:42:01.363Z,0
2022-08-30T00:43:17.661Z,0
2022-08-30T00:44:33.953Z,0
2022-08-30T00:45:50.246Z,0
2022-08-30T00:47:05.548Z,0
2022-08-30T00:48:21.838Z,0
2022-08-30T00:49:38.153Z,0
2022-08-30T00:50:54.437Z,0
2022-08-30T00:52:10.730Z,0
2022-08-30T00:53:27.012Z,0
2022-08-30T00:54:43.301Z,0
2022-08-30T00:55:59.592Z,0
2022-08-30T00:57:15.892Z,0
2022-08-30T00:58:32.175Z,0
2022-08-30T00:59:48.470Z,0
2022-08-30T01:01:04.768Z,0
2022-08-30T01:02:21.059Z,0
2022-08-30T01:03:36.360Z,0
2022-08-30T01:04:52.663Z,0
2022-08-30T01:06:08.955Z,0
2022-08-30T01:07:25.247Z,0
2022-08-30T01:08:41.538Z,0
2022-08-30T01:09:57.829Z,0
2022-08-30T01:11:14.119Z,0
2022-08-30T01:12:30.408Z,0
2022-08-30T01:13:46.710Z,0
2022-08-30T01:15:03.006Z,0
2022-08-30T01:16:19.284Z,0
2022-08-30T01:17:35.577Z,0
2022-08-30T01:18:51.883Z,0
2022-08-30T01:20:07.186Z,0
2022-08-30T01:21:23.492Z,0
2022-08-30T01:22:39.771Z,0
2022-08-30T01:23:56.076Z,0
2022-08-30T01:25:12.364Z,0
2022-08-30T01:26:28.648Z,0
2022-08-30T01:27:44.944Z,0
2022-08-30T01:29:01.236Z,0
2022-08-30T01:30:17.542Z,0
2022-08-30T01:31:33.822Z,0
2022-08-30T01:32:50.114Z,0
2022-08-30T01:34:06.408Z,0
2022-08-30T01:35:22.689Z,0
2022-08-30T01:36:38.005Z,0
2022-08-30T01:37:54.298Z,0
2022-08-30T01:39:10.587Z,0
2022-08-30T01:40:26.888Z,0
2022-08-30T01:41:43.183Z,0
2022-08-30T01:42:59.486Z,0
2022-08-30T01:44:15.773Z,0
2022-08-30T01:45:32.055Z,0
2022-08-30T01:46:48.338Z,0
2022-08-30T01:48:04.644Z,0
2022-08-30T01:49:20.930Z,0
2022-08-30T01:50:37.220Z,0
2022-08-30T01:51:53.516Z,0
2022-08-30T01:53:08.824Z,0
2022-08-30T01:54:25.125Z,0
2022-08-30T01:55:41.400Z,0
2022-08-30T01:56:57.712Z,0
2022-08-30T01:58:13.997Z,0
2022-08-30T01:59:30.279Z,0
2022-08-30T02:00:46.573Z,0
2022-08-30T02:02:02.862Z,0
2022-08-30T02:03:19.160Z,0
2022-08-30T02:04:35.452Z,0
2022-08-30T02:05:51.741Z,0
2022-08-30T02:07:08.052Z,0
2022-08-30T02:08:24.333Z,0
2022-08-30T02:09:39.647Z,0
2022-08-30T02:10:55.938Z,0
2022-08-30T02:12:12.222Z,0
2022-08-30T02:13:28.522Z,0
2022-08-30T02:14:44.811Z,0
2022-08-30T02:16:01.106Z,0
2022-08-30T02:17:17.404Z,0
2022-08-30T02:18:33.692Z,0
2022-08-30T02:19:49.982Z,0
2022-08-30T02:21:06.278Z,0
2022-08-30T02:22:22.565Z,0
2022-08-30T02:23:38.861Z,0
2022-08-30T02:24:55.152Z,0
2022-08-30T02:26:10.455Z,0
2022-08-30T02:27:26.744Z,0
2022-08-30T02:28:43.038Z,0
2022-08-30T02:29:59.344Z,0
2022-08-30T02:31:15.632Z,0
2022-08-30T02:32:31.931Z,0
2022-08-30T02:33:48.212Z,0
2022-08-30T02:35:04.513Z,0
2022-08-30T02:36:20.799Z,0
2022-08-30T02:37:37.090Z,0
2022-08-30T02:38:53.376Z,0
2022-08-30T02:40:09.670Z,0
2022-08-30T02:41:25.979Z,0
2022-08-30T02:42:41.276Z,0
2022-08-30T02:43:57.572Z,0
2022-08-30T02:45:13.864Z,0
2022-08-30T02:46:30.153Z,0
2022-08-30T02:47:46.454Z,0
2022-08-30T02:49:02.741Z,0
2022-08-30T02:50:19.037Z,0
2022-08-30T02:51:35.325Z,0
2022-08-30T02:52:51.610Z,0
2022-08-30T02:54:07.907Z,0
2022-08-30T02:55:24.199Z,0
2022-08-30T02:56:40.487Z,0
2022-08-30T02:57:56.796Z,0
2022-08-30T02:59:12.095Z,0
2022-08-30T03:00:28.397Z,0
2022-08-30T03:01:44.689Z,0
2022-08-30T03:03:00.964Z,0
2022-08-30T03:04:17.280Z,0
2022-08-30T03:05:33.558Z,0
2022-08-30T03:06:49.860Z,0
2022-08-30T03:08:06.137Z,0
2022-08-30T03:09:22.452Z,0
2022-08-30T03:10:38.731Z,0
2022-08-30T03:11:55.030Z,0
2022-08-30T03:13:11.322Z,0
2022-08-30T03:14:27.604Z,0
2022-08-30T03:15:42.913Z,0
2022-08-30T03:16:59.216Z,0
2022-08-30T03:18:15.496Z,0
2022-08-30T03:19:31.796Z,0
2022-08-30T03:20:48.093Z,0
2022-08-30T03:22:04.368Z,0
2022-08-30T03:23:19.684Z,0
2022-08-30T03:24:35.997Z,0
2022-08-30T03:25:52.273Z,0
2022-08-30T03:27:08.571Z,0
2022-08-30T03:28:24.849Z,0
2022-08-30T03:29:41.143Z,0
2022-08-30T03:30:57.434Z,0
2022-08-30T03:32:13.743Z,0
2022-08-30T03:33:30.033Z,0
2022-08-30T03:34:46.320Z,0
2022-08-30T03:36:02.617Z,0
2022-08-30T03:37:18.906Z,0
2022-08-30T03:38:35.208Z,0
2022-08-30T03:39:50.508Z,0
2022-08-30T03:41:06.790Z,0
2022-08-30T03:42:23.091Z,0
2022-08-30T03:43:39.376Z,0
2022-08-30T03:44:55.680Z,0
2022-08-30T03:46:11.972Z,0
2022-08-30T03:47:28.209Z,0
2022-08-30T03:48:44.491Z,0
2022-08-30T03:50:00.789Z,0
2022-08-30T03:51:17.040Z,0
2022-08-30T03:52:33.286Z,0
2022-08-30T03:53:49.563Z,0
2022-08-30T03:55:05.875Z,0
2022-08-30T03:56:21.138Z,0
2022-08-30T03:57:37.379Z,0
2022-08-30T03:58:53.664Z,0
2022-08-30T04:00:09.961Z,0
2022-08-30T04:01:26.216Z,0
2022-08-30T04:02:42.451Z,0
2022-08-30T04:03:58.683Z,0
2022-08-30T04:05:14.914Z,0
2022-08-30T04:06:31.164Z,0
2022-08-30T04:07:47.396Z,0
2022-08-30T04:09:03.643Z,0
2022-08-30T04:10:19.874Z,0
2022-08-30T04:11:36.106Z,0
2022-08-30T04:12:51.360Z,0
2022-08-30T04:14:07.604Z,0
2022-08-30T04:15:23.851Z,0
2022-08-30T04:16:40.080Z,0
2022-08-30T04:17:56.316Z,0
2022-08-30T04:19:12.567Z,0
2022-08-30T04:20:28.790Z,0
2022-08-30T04:21:45.044Z,0
2022-08-30T04:23:01.279Z,0
2022-08-30T04:24:17.522Z,0
2022-08-30T04:25:33.742Z,0
2022-08-30T04:26:49.991Z,0
2022-08-30T04:28:06.227Z,0
2022-08-30T04:29:21.494Z,0
2022-08-30T04:30:37.722Z,0
2022-08-30T04:31:53.963Z,0
2022-08-30T04:33:10.190Z,0
2022-08-30T04:34:26.448Z,0
2022-08-30T04:35:42.682Z,0
2022-08-30T04:36:58.915Z,0
2022-08-30T04:38:15.158Z,0
2022-08-30T04:39:31.396Z,0
2022-08-30T04:40:47.624Z,0
2022-08-30T04:42:03.877Z,0
2022-08-30T04:43:20.111Z,5
2022-08-30T04:44:36.355Z,5
2022-08-30T04:45:51.595Z,5
2022-08-30T04:47:07.840Z,5
2022-08-30T04:48:24.070Z,5
2022-08-30T04:49:40.320Z,5
2022-08-30T04:50:56.552Z,5
2022-08-30T04:52:12.793Z,5
2022-08-30T04:53:29.036Z,5
2022-08-30T04:54:45.264Z,5
2022-08-30T04:56:01.506Z,5
2022-08-30T04:57:17.736Z,5
2022-08-30T04:58:33.979Z,5
2022-08-30T04:59:50.223Z,5
2022-08-30T05:01:06.463Z,11
2022-08-30T05:02:21.708Z,11
2022-08-30T05:03:37.948Z,11
2022-08-30T05:04:54.201Z,11
2022-08-30T05:06:10.442Z,11
2022-08-30T05:07:26.664Z,11
2022-08-30T05:08:42.910Z,11
2022-08-30T05:09:59.148Z,11
2022-08-30T05:11:15.375Z,11
2022-08-30T05:12:31.629Z,11
2022-08-30T05:13:47.867Z,11
2022-08-30T05:15:04.091Z,11
2022-08-30T05:16:20.330Z,11
2022-08-30T05:17:36.588Z,11
2022-08-30T05:18:51.822Z,11
2022-08-30T05:20:08.079Z,11
2022-08-30T05:21:24.302Z,11
2022-08-30T05:22:40.544Z,11
2022-08-30T05:23:56.787Z,11
2022-08-30T05:25:13.019Z,11
2022-08-30T05:26:29.261Z,11
2022-08-30T05:27:45.499Z,11
2022-08-30T05:29:01.740Z,11
2022-08-30T05:30:17.987Z,11
2022-08-30T05:31:34.228Z,11
2022-08-30T05:32:50.462Z,11
2022-08-30T05:34:06.694Z,11
2022-08-30T05:35:21.944Z,11
2022-08-30T05:36:38.182Z,11
2022-08-30T05:37:54.417Z,11
2022-08-30T05:39:10.658Z,11
2022-08-30T05:40:26.892Z,11
2022-08-30T05:41:43.132Z,16
2022-08-30T05:42:59.380Z,16
2022-08-30T05:44:15.617Z,16
2022-08-30T05:45:31.850Z,16
2022-08-30T05:46:48.098Z,16
2022-08-30T05:48:04.339Z,16
2022-08-30T05:49:20.573Z,16
2022-08-30T05:50:36.815Z,16
2022-08-30T05:51:52.070Z,16
2022-08-30T05:53:08.308Z,16
2022-08-30T05:54:24.532Z,16
2022-08-30T05:55:40.786Z,16
2022-08-30T05:56:57.027Z,16
2022-08-30T05:58:13.258Z,16
2022-08-30T05:59:29.486Z,16
2022-08-30T06:00:45.728Z,16
2022-08-30T06:02:01.973Z,16
2022-08-30T06:03:18.213Z,16
2022-08-30T06:04:34.460Z,16
2022-08-30T06:05:50.680Z,16
2022-08-30T06:07:06.929Z,16
2022-08-30T06:08:22.170Z,22
2022-08-30T06:09:38.418Z,22
2022-08-30T06:10:54.655Z,22
2022-08-30T06:12:10.901Z,22
2022-08-30T06:13:27.138Z,22
2022-08-30T06:14:43.370Z,22
2022-08-30T06:15:59.617Z,22
2022-08-30T06:17:15.848Z,22
2022-08-30T06:18:32.098Z,22
2022-08-30T06:19:48.319Z,22
2022-08-30T06:21:04.567Z,22
2022-08-30T06:22:20.802Z,22
2022-08-30T06:23:37.048Z,22
2022-08-30T06:24:52.300Z,22
2022-08-30T06:26:08.524Z,22
2022-08-30T06:27:24.779Z,22
2022-08-30T06:28:41.015Z,22
2022-08-30T06:29:57.252Z,28
2022-08-30T06:31:13.492Z,28
2022-08-30T06:32:29.731Z,22
2022-08-30T06:33:45.955Z,28
2022-08-30T06:35:02.206Z,28
2022-08-30T06:36:18.445Z,28
2022-08-30T06:37:34.669Z,28
2022-08-30T06:38:50.914Z,28
2022-08-30T06:40:07.163Z,28
2022-08-30T06:41:23.389Z,28
2022-08-30T06:42:38.643Z,28
2022-08-30T06:43:54.884Z,28
2022-08-30T06:45:11.120Z,28
2022-08-30T06:46:27.365Z,28
2022-08-30T06:47:43.595Z,28
2022-08-30T06:48:59.843Z,28
2022-08-30T06:50:16.071Z,28
2022-08-30T06:51:32.325Z,28
2022-08-30T06:52:48.566Z,33
2022-08-30T06:54:04.786Z,33
2022-08-30T06:55:21.036Z,33
2022-08-30T06:56:37.267Z,33
2022-08-30T06:57:53.514Z,33
2022-08-30T06:59:08.768Z,33
2022-08-30T07:00:25.004Z,28
2022-08-30T07:01:41.243Z,28
2022-08-30T07:02:57.492Z,22
2022-08-30T07:04:13.711Z,28
2022-08-30T07:05:29.969Z,28
2022-08-30T07:06:46.204Z,28
2022-08-30T07:08:02.443Z,33
2022-08-30T07:09:18.668Z,22
2022-08-30T07:10:34.924Z,28
2022-08-30T07:11:51.154Z,22
2022-08-30T07:13:07.396Z,22
2022-08-30T07:14:23.634Z,22
2022-08-30T07:15:38.887Z,22
2022-08-30T07:16:55.124Z,22
2022-08-30T07:18:11.357Z,33
2022-08-30T07:19:27.605Z,28
2022-08-30T07:20:43.833Z,22
2022-08-30T07:22:00.075Z,28
2022-08-30T07:23:16.315Z,28
2022-08-30T07:24:32.548Z,33
2022-08-30T07:25:48.799Z,33
2022-08-30T07:27:05.034Z,33
2022-08-30T07:28:21.275Z,33
2022-08-30T07:29:37.507Z,33
2022-08-30T07:30:53.756Z,33
2022-08-30T07:32:09.009Z,33
2022-08-30T07:33:25.233Z,33
2022-08-30T07:34:41.481Z,33
2022-08-30T07:35:57.708Z,33
2022-08-30T07:37:13.967Z,33
2022-08-30T07:38:29.215Z,33
2022-08-30T07:39:45.444Z,33
2022-08-30T07:41:01.681Z,33
2022-08-30T07:42:17.923Z,39
2022-08-30T07:43:34.160Z,39
2022-08-30T07:44:50.409Z,39
2022-08-30T07:46:06.646Z,39
2022-08-30T07:47:22.890Z,39
2022-08-30T07:48:39.111Z,39
2022-08-30T07:49:55.364Z,33
2022-08-30T07:51:11.589Z,33
2022-08-30T07:52:27.832Z,33
2022-08-30T07:53:44.071Z,33
2022-08-30T07:54:59.333Z,39
2022-08-30T07:56:15.575Z,39
2022-08-30T07:57:31.806Z,39
2022-08-30T07:58:48.055Z,39
2022-08-30T08:00:04.286Z,39
2022-08-30T08:01:20.519Z,39
2022-08-30T08:02:36.758Z,33
2022-08-30T08:03:53.010Z,39
2022-08-30T08:05:09.240Z,33
2022-08-30T08:06:25.482Z,33
2022-08-30T08:07:41.733Z,33
2022-08-30T08:08:57.970Z,39
2022-08-30T08:10:14.193Z,39
2022-08-30T08:11:29.454Z,39
2022-08-30T08:12:45.683Z,39
2022-08-30T08:14:01.929Z,39
2022-08-30T08:15:18.168Z,39
2022-08-30T08:16:34.409Z,39
2022-08-30T08:17:50.641Z,39
2022-08-30T08:19:06.889Z,39
2022-08-30T08:20:23.132Z,39
2022-08-30T08:21:39.357Z,39
2022-08-30T08:22:55.603Z,39
2022-08-30T08:24:11.849Z,39
2022-08-30T08:25:28.081Z,39
2022-08-30T08:26:44.311Z,39
2022-08-30T08:27:59.571Z,39
2022-08-30T08:29:15.811Z,39
2022-08-30T08:30:32.051Z,39
2022-08-30T08:31:48.293Z,39
2022-08-30T08:33:04.518Z,39
2022-08-30T08:34:20.764Z,39
2022-08-30T08:35:37.003Z,39
2022-08-30T08:36:53.246Z,39
2022-08-30T08:38:09.485Z,39
2022-08-30T08:39:25.729Z,39
2022-08-30T08:40:41.968Z,45
2022-08-30T08:41:58.196Z,45
2022-08-30T08:43:14.441Z,45
2022-08-30T08:44:29.693Z,45
2022-08-30T08:45:45.934Z,45
2022-08-30T08:47:02.173Z,45
2022-08-30T08:48:18.406Z,45
2022-08-30T08:49:34.657Z,45
2022-08-30T08:50:50.885Z,45
2022-08-30T08:52:07.131Z,45
2022-08-30T08:53:23.364Z,45
2022-08-30T08:54:39.614Z,45
2022-08-30T08:55:55.854Z,45
2022-08-30T08:57:12.093Z,45
2022-08-30T08:58:28.319Z,45
2022-08-30T08:59:44.572Z,50
2022-08-30T09:00:59.823Z,50
2022-08-30T09:02:16.052Z,45
2022-08-30T09:03:32.297Z,50
2022-08-30T09:04:48.536Z,50
2022-08-30T09:06:04.783Z,56
2022-08-30T09:07:21.014Z,50
2022-08-30T09:08:37.256Z,50
2022-08-30T09:09:53.506Z,50
2022-08-30T09:11:09.722Z,50
2022-08-30T09:12:25.964Z,50
2022-08-30T09:13:42.200Z,50
2022-08-30T09:14:58.441Z,50
2022-08-30T09:16:14.684Z,50
2022-08-30T09:17:29.950Z,50
2022-08-30T09:18:46.189Z,50
2022-08-30T09:20:02.427Z,50
2022-08-30T09:21:18.669Z,50
2022-08-30T09:22:34.915Z,50
2022-08-30T09:23:51.136Z,56
2022-08-30T09:25:07.385Z,56
2022-08-30T09:26:23.622Z,56
2022-08-30T09:27:39.857Z,61
2022-08-30T09:28:56.099Z,56
2022-08-30T09:30:12.349Z,56
2022-08-30T09:31:28.583Z,56
2022-08-30T09:32:44.820Z,56
2022-08-30T09:34:00.092Z,56
2022-08-30T09:35:16.321Z,56
2022-08-30T09:36:32.571Z,56
2022-08-30T09:37:48.816Z,61
2022-08-30T09:39:05.043Z,61
2022-08-30T09:40:21.291Z,50
2022-08-30T09:41:37.525Z,61
2022-08-30T09:42:53.779Z,56
2022-08-30T09:44:09.996Z,61
2022-08-30T09:45:26.251Z,61
2022-08-30T09:46:42.476Z,67
2022-08-30T09:47:58.729Z,67
2022-08-30T09:49:14.975Z,67
2022-08-30T09:50:30.218Z,61
2022-08-30T09:53:02.699Z,67
2022-08-30T09:54:18.945Z,67
2022-08-30T09:55:35.184Z,67
2022-08-30T09:56:51.424Z,67
2022-08-30T09:58:07.656Z,73
2022-08-30T09:59:23.906Z,73
2022-08-30T10:00:40.147Z,73
2022-08-30T10:01:56.398Z,73
2022-08-30T10:03:12.628Z,73
2022-08-30T10:04:28.852Z,78
2022-08-30T10:05:45.093Z,78
2022-08-30T10:07:00.366Z,84
2022-08-30T10:08:16.600Z,90
2022-08-30T10:09:32.838Z,95
2022-08-30T10:10:49.074Z,95
2022-08-30T10:12:05.317Z,101
2022-08-30T10:13:21.558Z,101
2022-08-30T10:14:37.788Z,73
2022-08-30T10:15:54.022Z,101
2022-08-30T10:17:10.260Z,73
2022-08-30T10:18:26.517Z,123
2022-08-30T10:19:42.748Z,123
2022-08-30T10:20:58.981Z,163
2022-08-30T10:22:15.232Z,163
2022-08-30T10:23:30.497Z,163
2022-08-30T10:24:46.719Z,157
2022-08-30T10:26:02.968Z,163
2022-08-30T10:27:19.205Z,163
2022-08-30T10:28:35.427Z,78
2022-08-30T10:29:51.666Z,78
2022-08-30T10:31:07.904Z,84
2022-08-30T10:32:24.151Z,180
2022-08-30T10:33:40.394Z,174
2022-08-30T10:34:56.631Z,174
2022-08-30T10:36:12.868Z,174
2022-08-30T10:37:29.100Z,174
2022-08-30T10:38:45.343Z,174
2022-08-30T10:40:00.593Z,174
2022-08-30T10:41:16.823Z,185
2022-08-30T10:42:33.068Z,191
2022-08-30T10:43:49.317Z,191
2022-08-30T10:45:05.545Z,168
2022-08-30T10:46:21.787Z,202
2022-08-30T10:47:38.023Z,191
2022-08-30T10:48:54.281Z,191
2022-08-30T10:50:10.493Z,202
2022-08-30T10:51:26.745Z,202
2022-08-30T10:52:42.970Z,208
2022-08-30T10:53:59.220Z,213
2022-08-30T10:55:15.443Z,202
2022-08-30T10:56:30.707Z,174
2022-08-30T10:57:46.952Z,78
2022-08-30T10:59:03.184Z,73
2022-08-30T11:00:19.424Z,73
2022-08-30T11:01:35.666Z,73
2022-08-30T11:02:51.900Z,67
2022-08-30T11:04:08.142Z,67
2022-08-30T11:05:24.371Z,67
2022-08-30T11:06:40.605Z,67
2022-08-30T11:07:56.840Z,67
2022-08-30T11:09:13.086Z,67
2022-08-30T11:10:29.323Z,61
2022-08-30T11:11:45.556Z,61
2022-08-30T11:13:00.810Z,67
2022-08-30T11:14:17.047Z,84
2022-08-30T11:15:33.283Z,67
2022-08-30T11:16:49.554Z,84
2022-08-30T11:18:05.761Z,236
2022-08-30T11:19:22.017Z,241
2022-08-30T11:20:38.240Z,225
2022-08-30T11:21:54.484Z,84
2022-08-30T11:23:10.717Z,247
2022-08-30T11:24:26.956Z,253
2022-08-30T11:25:43.193Z,236
2022-08-30T11:26:59.438Z,247
2022-08-30T11:28:15.676Z,236
2022-08-30T11:29:30.925Z,230
2022-08-30T11:30:47.160Z,236
2022-08-30T11:32:03.412Z,241
2022-08-30T11:33:19.639Z,258
2022-08-30T11:34:35.888Z,258
2022-08-30T11:35:52.110Z,270
2022-08-30T11:37:08.363Z,275
2022-08-30T11:38:24.603Z,264
2022-08-30T11:39:40.844Z,241
2022-08-30T11:40:57.080Z,106
2022-08-30T11:42:13.300Z,84
2022-08-30T11:43:29.552Z,78
2022-08-30T11:44:45.795Z,84
2022-08-30T11:46:01.037Z,292
2022-08-30T11:47:17.282Z,286
2022-08-30T11:48:33.523Z,180
2022-08-30T11:49:49.756Z,95
2022-08-30T11:51:05.987Z,90
2022-08-30T11:52:22.240Z,84
2022-08-30T11:53:37.489Z,84
2022-08-30T11:54:53.740Z,95
2022-08-30T11:56:09.961Z,123
2022-08-30T11:57:26.224Z,309
2022-08-30T11:58:42.446Z,298
2022-08-30T11:59:58.670Z,241
2022-08-30T12:01:14.909Z,106
2022-08-30T12:02:31.155Z,106
2022-08-30T12:03:47.404Z,118
2022-08-30T12:05:03.636Z,286
2022-08-30T12:06:19.874Z,213
2022-08-30T12:07:36.102Z,135
2022-08-30T12:08:52.342Z,275
2022-08-30T12:10:07.599Z,247
2022-08-30T12:11:23.865Z,101
2022-08-30T12:13:56.306Z,84
2022-08-30T12:15:12.561Z,84
2022-08-30T12:16:28.784Z,90
2022-08-30T12:17:45.036Z,95
2022-08-30T12:19:01.261Z,90
2022-08-30T12:20:17.519Z,84
2022-08-30T12:21:33.749Z,78
2022-08-30T12:22:50.007Z,73
2022-08-30T12:24:06.222Z,73
2022-08-30T12:25:22.470Z,101
2022-08-30T12:26:37.710Z,202
2022-08-30T12:27:53.958Z,191
2022-08-30T12:29:10.201Z,73
2022-08-30T12:30:26.446Z,67
2022-08-30T12:31:42.666Z,67
2022-08-30T12:32:58.911Z,78
2022-08-30T12:34:15.152Z,73
2022-08-30T12:35:31.389Z,73
2022-08-30T12:36:47.625Z,67
2022-08-30T12:38:03.868Z,67
2022-08-30T12:39:20.085Z,73
2022-08-30T12:40:36.336Z,84
2022-08-30T12:41:52.564Z,140
2022-08-30T12:43:07.823Z,157
2022-08-30T12:44:24.069Z,146
2022-08-30T12:45:40.297Z,90
2022-08-30T12:46:56.541Z,84
2022-08-30T12:48:12.786Z,84
2022-08-30T12:49:29.035Z,84
2022-08-30T12:50:45.271Z,84
2022-08-30T12:52:01.503Z,84
2022-08-30T12:53:17.742Z,84
2022-08-30T12:54:33.962Z,78
2022-08-30T12:55:50.220Z,78
2022-08-30T12:57:06.444Z,84
2022-08-30T12:58:22.695Z,101
2022-08-30T12:59:37.937Z,129
2022-08-30T13:00:54.174Z,106
2022-08-30T13:02:10.406Z,101
2022-08-30T13:03:26.670Z,101
2022-08-30T13:04:42.900Z,101
2022-08-30T13:05:59.120Z,106
2022-08-30T13:07:15.382Z,112
2022-08-30T13:08:31.620Z,112
2022-08-30T13:09:47.843Z,123
2022-08-30T13:11:04.082Z,258
2022-08-30T13:12:20.329Z,365
2022-08-30T13:13:36.567Z,376
2022-08-30T13:14:52.792Z,365
2022-08-30T13:16:08.057Z,331
2022-08-30T13:17:24.293Z,382
2022-08-30T13:18:40.524Z,393
2022-08-30T13:19:56.767Z,393
2022-08-30T13:21:13.008Z,348
2022-08-30T13:22:29.239Z,309
2022-08-30T13:23:45.477Z,292
2022-08-30T13:25:01.723Z,298
2022-08-30T13:26:17.952Z,337
2022-08-30T13:27:34.194Z,348
2022-08-30T13:28:50.434Z,236
2022-08-30T13:30:06.674Z,196
2022-08-30T13:31:22.905Z,180
2022-08-30T13:32:38.168Z,275
2022-08-30T13:33:54.409Z,196
2022-08-30T13:35:10.662Z,264
2022-08-30T13:36:26.882Z,185
2022-08-30T13:37:43.118Z,174
2022-08-30T13:38:59.376Z,174
2022-08-30T13:40:15.604Z,163
2022-08-30T13:41:31.857Z,163
2022-08-30T13:42:48.075Z,236
2022-08-30T13:44:04.316Z,286
2022-08-30T13:45:20.555Z,180
2022-08-30T13:46:36.797Z,157
2022-08-30T13:47:53.024Z,281
2022-08-30T13:49:08.279Z,208
2022-08-30T13:50:24.522Z,123
2022-08-30T13:51:40.762Z,129
2022-08-30T13:52:57.006Z,174
2022-08-30T13:54:13.252Z,123
2022-08-30T13:55:29.489Z,135
2022-08-30T13:56:45.726Z,163
2022-08-30T13:58:01.975Z,208
2022-08-30T13:59:18.199Z,388
2022-08-30T14:00:34.431Z,264
2022-08-30T14:01:50.671Z,253
2022-08-30T14:03:06.908Z,135
2022-08-30T14:04:23.162Z,151
2022-08-30T14:05:38.437Z,213
2022-08-30T14:06:54.649Z,202
2022-08-30T14:08:10.886Z,309
2022-08-30T14:09:27.132Z,354
2022-08-30T14:10:43.368Z,382
2022-08-30T14:11:59.593Z,393
2022-08-30T14:13:15.833Z,365
2022-08-30T14:14:32.072Z,213
2022-08-30T14:15:48.312Z,146
2022-08-30T14:17:04.568Z,146
2022-08-30T14:18:20.795Z,168
2022-08-30T14:19:37.032Z,208
2022-08-30T14:20:53.266Z,275
2022-08-30T14:22:08.545Z,337
2022-08-30T14:23:24.774Z,241
2022-08-30T14:24:41.014Z,140
2022-08-30T14:25:57.254Z,135
2022-08-30T14:27:13.512Z,225
2022-08-30T14:28:29.727Z,264
2022-08-30T14:29:45.981Z,236
2022-08-30T14:31:02.197Z,258
2022-08-30T14:32:18.435Z,365
2022-08-30T14:33:34.665Z,371
2022-08-30T14:34:50.907Z,371
2022-08-30T14:36:07.151Z,371
2022-08-30T14:37:23.394Z,343
2022-08-30T14:38:38.642Z,354
2022-08-30T14:39:54.879Z,343
2022-08-30T14:41:11.120Z,371
2022-08-30T14:42:27.358Z,320
2022-08-30T14:43:43.610Z,151
2022-08-30T14:44:59.836Z,112
2022-08-30T14:46:16.086Z,106
2022-08-30T14:47:32.331Z,106
2022-08-30T14:48:48.547Z,106
2022-08-30T14:50:04.797Z,106
2022-08-30T14:51:21.034Z,146
2022-08-30T14:52:37.289Z,174
2022-08-30T14:53:53.525Z,112
2022-08-30T14:55:08.761Z,101
2022-08-30T14:56:25.014Z,101
2022-08-30T14:57:41.239Z,101
2022-08-30T14:58:57.471Z,101
2022-08-30T15:00:13.738Z,101
2022-08-30T15:01:29.952Z,140
2022-08-30T15:02:46.197Z,191
2022-08-30T15:04:02.429Z,225
2022-08-30T15:05:18.671Z,275
2022-08-30T15:06:34.902Z,112
2022-08-30T15:07:51.141Z,95
2022-08-30T15:10:23.622Z,90
2022-08-30T15:11:38.887Z,90
2022-08-30T15:12:55.134Z,90
2022-08-30T15:14:11.352Z,90
2022-08-30T15:15:27.595Z,95
2022-08-30T15:16:43.822Z,90
2022-08-30T15:18:00.099Z,90
2022-08-30T15:19:16.305Z,84
2022-08-30T15:20:32.575Z,95
2022-08-30T15:21:48.792Z,275
2022-08-30T15:23:05.031Z,292
2022-08-30T15:24:21.264Z,309
2022-08-30T15:25:37.514Z,303
2022-08-30T15:26:53.732Z,101
2022-08-30T15:28:09.012Z,90
2022-08-30T15:29:25.238Z,95
2022-08-30T15:30:41.467Z,123
2022-08-30T15:31:57.698Z,118
2022-08-30T15:33:13.941Z,78
2022-08-30T15:34:30.177Z,67
2022-08-30T15:35:46.441Z,61
2022-08-30T15:37:02.656Z,56
2022-08-30T15:38:18.902Z,56
2022-08-30T15:39:35.143Z,56
2022-08-30T15:40:51.368Z,56
2022-08-30T15:42:07.607Z,50
2022-08-30T15:43:23.849Z,45
2022-08-30T15:44:39.103Z,50
2022-08-30T15:45:55.344Z,84
2022-08-30T15:47:11.578Z,56
2022-08-30T15:48:27.824Z,50
2022-08-30T15:49:44.000Z,45
2022-08-30T15:51:00.316Z,50
2022-08-30T15:52:16.524Z,67
2022-08-30T15:53:32.792Z,123
2022-08-30T15:54:49.001Z,78
2022-08-30T15:56:05.238Z,129
2022-08-30T15:57:21.493Z,73
2022-08-30T15:58:37.737Z,90
2022-08-30T15:59:53.965Z,118
2022-08-30T16:01:09.238Z,123
2022-08-30T16:02:25.462Z,56
2022-08-30T16:03:41.681Z,61
2022-08-30T16:04:57.926Z,67
2022-08-30T16:06:14.159Z,67
2022-08-30T16:07:30.433Z,56
2022-08-30T16:08:45.673Z,50
2022-08-30T16:10:01.912Z,50
2022-08-30T16:11:18.148Z,45
2022-08-30T16:12:34.374Z,45
2022-08-30T16:13:50.616Z,45
2022-08-30T16:15:06.883Z,45
2022-08-30T16:16:23.089Z,45
2022-08-30T16:17:39.324Z,45
2022-08-30T16:18:55.589Z,45
2022-08-30T16:20:11.801Z,45
2022-08-30T16:21:28.044Z,45
2022-08-30T16:22:44.291Z,45
2022-08-30T16:24:00.515Z,39
2022-08-30T16:25:15.783Z,39
2022-08-30T16:26:32.006Z,39
2022-08-30T16:27:48.261Z,39
2022-08-30T16:29:04.485Z,39
2022-08-30T16:30:20.725Z,39
2022-08-30T16:31:36.961Z,45
2022-08-30T16:32:53.208Z,84
2022-08-30T16:34:09.448Z,39
2022-08-30T16:35:25.680Z,33
2022-08-30T16:36:41.947Z,33
2022-08-30T16:37:58.152Z,33
2022-08-30T16:39:14.393Z,39
2022-08-30T16:40:30.638Z,39
2022-08-30T16:41:45.893Z,39
2022-08-30T16:43:02.121Z,39
2022-08-30T16:44:18.379Z,56
2022-08-30T16:45:34.591Z,50
2022-08-30T16:46:50.843Z,50
2022-08-30T16:48:07.080Z,39
2022-08-30T16:49:23.323Z,39
2022-08-30T16:50:39.559Z,33
2022-08-30T16:51:55.801Z,33
2022-08-30T16:53:12.022Z,39
2022-08-30T16:54:28.269Z,33
2022-08-30T16:55:44.500Z,33
2022-08-30T16:57:00.744Z,33
2022-08-30T16:58:15.996Z,28
2022-08-30T16:59:32.234Z,28
2022-08-30T17:00:48.489Z,28
2022-08-30T17:02:04.728Z,28
2022-08-30T17:03:20.966Z,28
2022-08-30T17:04:37.190Z,28
2022-08-30T17:05:53.439Z,22
2022-08-30T17:07:09.694Z,22
2022-08-30T17:08:25.913Z,39
2022-08-30T17:09:42.149Z,61
2022-08-30T17:10:58.382Z,61
2022-08-30T17:12:14.617Z,61
2022-08-30T17:13:30.873Z,61
2022-08-30T17:14:46.122Z,61
2022-08-30T17:16:02.358Z,56
2022-08-30T17:17:18.587Z,56
2022-08-30T17:18:34.836Z,56
2022-08-30T17:19:51.067Z,50
2022-08-30T17:21:07.319Z,50
2022-08-30T17:22:23.547Z,50
2022-08-30T17:23:39.786Z,50
2022-08-30T17:24:56.031Z,50
2022-08-30T17:26:12.268Z,33
2022-08-30T17:27:28.491Z,22
2022-08-30T17:28:44.747Z,16
2022-08-30T17:30:00.972Z,16
2022-08-30T17:31:16.233Z,16
2022-08-30T17:32:32.477Z,11
2022-08-30T17:33:48.706Z,11
2022-08-30T17:35:04.937Z,11
2022-08-30T17:36:21.184Z,11
2022-08-30T17:37:37.423Z,11
2022-08-30T17:38:53.658Z,5
2022-08-30T17:40:09.894Z,5
2022-08-30T17:41:26.133Z,5
2022-08-30T17:42:42.369Z,5
2022-08-30T17:43:58.620Z,5
2022-08-30T17:45:14.840Z,5
2022-08-30T17:46:31.085Z,5
2022-08-30T17:47:46.350Z,5
2022-08-30T17:49:02.571Z,0
2022-08-30T17:50:18.813Z,0
2022-08-30T17:51:35.052Z,0
2022-08-30T17:52:51.296Z,0
2022-08-30T17:54:07.538Z,0
2022-08-30T17:55:23.779Z,0
2022-08-30T17:56:40.017Z,0
2022-08-30T17:57:56.000Z,0
2022-08-30T17:59:12.495Z,0
2022-08-30T18:00:28.730Z,0
2022-08-30T18:01:44.956Z,0
2022-08-30T18:03:01.198Z,0
2022-08-30T18:04:16.470Z,0
2022-08-30T18:05:32.695Z,0
2022-08-30T18:06:48.929Z,0
2022-08-30T18:08:05.177Z,0
2022-08-30T18:09:21.411Z,0
2022-08-30T18:10:37.658Z,0
2022-08-30T18:11:53.902Z,0
2022-08-30T18:13:10.146Z,0